MET'MAP v2.0
soon released !

Expected late october,
this new version will be
more efficient, smarter,
and hosted on a brand new
server x3 powerfull...
...and still free !


Not compatible ?
Try the mobile version !

LOG IN : | Subscribe | Disclaimer | Who is Orbifly ? |
ICAO code :

TAF - EBFS Florennes - 12 Dec 2019 20:16 UTC
Data Sources :     NOAA   


- Airport Elevation : 935 ft
- No reported NOTAMs.


EBFS - Florennes

Latest METAR recorded : 2015/08/11 07:55 EBFS 110755Z 32003KT 7000 FEW012 SCT220 20/17 Q1019 WHT WHT BECMG BLU
TAF TAF EBFS
Valid from the 12 at 19:00 until the 13 at 07:00 UTC


121541Z 1219/1307 16015G25KT 3000 RA FEW004 SCT006 BKN008
TEMPO 1219/1300 17020G30KT

Source NOAA


MET'MAP, your aeronautical weather chart ! - Copyright ORBIFLY December 2007

Programming & Development : Alexandra Zaïnal
Co-Developer : Marc-Olivier Méhu
Technical & hardware support : Manuel Goepfert
Concept & Financing : Baudouin d'Aumeries